Terminal Aerodrome Forecast
Issued by NWS

Home | Current Version | Previous Version | Text Only | Print | Product List | Glossary On
Versions: 1 2 3 4 5 6 7 8 9 10 11 12 13 14 15 16 17 18 19 20 21 22 23 24
000
FTUS41 KPBZ 220302 AAB
TAFMGW
TAF AMD
KMGW 220302Z 2203/2224 36008KT P6SM OVC004
     FM220600 02005KT P6SM OVC015
     FM220800 02008KT 4SM -RA OVC020
     FM221200 04010KT 2SM -RA OVC015
     FM221600 06008KT 2SM -RA BR OVC008
     FM222100 05005KT P6SM OVC008
     FM222300 05005KT P6SM OVC010=

USA.gov is the U.S. government's official web portal to all federal, state and local government web resources and services.